CYKF

Waterloo Airport

Kitchener, Ontario, Canada
METAR CYKF 241900Z AUTO 12014KT 9SM OVC018 18/13 A3026 RMK SLP250 DENSITY ALT 1200FT
Observed Flight Rules
Sep-24 @ 19:00 UTC (27 minutes ago) Marginal Visual Flight Rules
Wind Visibility Clouds
120° at 14 knots 9 miles
  • Overcast at 1,800' AGL
Temperatures Readings
Current 18°C / 64°F
Dewpoint 13°C / 55°F
Humidity 73%
Altimeter 30.26" Hg
Pressure 1025 hPa
Elevation 317
METAR CYKF 241900Z AUTO 12014KT 9SM OVC018 18/13 A3026 RMK SLP250 DENSITY ALT 1200FT
Observed Flight Rules
Sep-24 @ 19:00 UTC
(27 minutes ago)
MVFR
Wind Visibility
120° at 14 knots 9 miles
Clouds
  • Overcast at 1,800' AGL
Temperature Dewpoint
18°C / 64°F 13°C / 55°F
Humidity Altimeter Pressure
73% 30.26" Hg 1025 hPa